sensor_id;sensor_type;location;lat;lon;timestamp;pressure;altitude;pressure_sealevel;temperature;humidity
32033;BME280;31720;52.638;9.216;2023-12-20T00:02:30;100870.72;;;6.39;100.00
32033;BME280;31720;52.638;9.216;2023-12-20T00:05:32;100866.34;;;6.39;100.00
32033;BME280;31720;52.638;9.216;2023-12-20T00:08:33;100878.94;;;6.28;100.00
32033;BME280;31720;52.638;9.216;2023-12-20T00:11:36;100878.09;;;6.27;100.00
32033;BME280;31720;52.638;9.216;2023-12-20T00:14:37;100875.50;;;6.26;100.00
32033;BME280;31720;52.638;9.216;2023-12-20T00:17:38;100876.78;;;6.14;100.00
32033;BME280;31720;52.638;9.216;2023-12-20T00:20:40;100872.44;;;6.13;100.00
32033;BME280;31720;52.638;9.216;2023-12-20T00:23:41;100864.81;;;6.07;100.00
32033;BME280;31720;52.638;9.216;2023-12-20T00:26:44;100863.13;;;6.06;100.00
32033;BME280;31720;52.638;9.216;2023-12-20T00:29:45;100866.69;;;6.03;100.00
32033;BME280;31720;52.638;9.216;2023-12-20T00:32:49;100866.53;;;6.08;100.00
32033;BME280;31720;52.638;9.216;2023-12-20T00:35:51;100879.47;;;6.11;100.00
32033;BME280;31720;52.638;9.216;2023-12-20T00:38:52;100878.03;;;6.02;100.00
32033;BME280;31720;52.638;9.216;2023-12-20T00:41:55;100876.31;;;6.01;100.00
32033;BME280;31720;52.638;9.216;2023-12-20T00:44:56;100874.34;;;6.08;100.00
32033;BME280;31720;52.638;9.216;2023-12-20T00:47:57;100871.97;;;6.02;100.00
32033;BME280;31720;52.638;9.216;2023-12-20T00:50:59;100872.59;;;6.08;100.00
32033;BME280;31720;52.638;9.216;2023-12-20T00:54:01;100866.81;;;5.99;100.00
32033;BME280;31720;52.638;9.216;2023-12-20T00:57:04;100870.28;;;5.99;100.00
32033;BME280;31720;52.638;9.216;2023-12-20T01:00:06;100871.16;;;6.00;100.00
32033;BME280;31720;52.638;9.216;2023-12-20T01:03:09;100880.69;;;6.01;100.00
32033;BME280;31720;52.638;9.216;2023-12-20T01:06:11;100874.66;;;5.99;100.00
32033;BME280;31720;52.638;9.216;2023-12-20T01:09:12;100868.56;;;6.00;100.00
32033;BME280;31720;52.638;9.216;2023-12-20T01:12:15;100863.59;;;5.91;100.00
32033;BME280;31720;52.638;9.216;2023-12-20T01:15:17;100868.28;;;5.79;100.00
32033;BME280;31720;52.638;9.216;2023-12-20T01:18:18;100868.38;;;5.76;100.00
32033;BME280;31720;52.638;9.216;2023-12-20T01:21:19;100858.84;;;5.75;100.00
32033;BME280;31720;52.638;9.216;2023-12-20T01:24:21;100858.72;;;5.80;100.00
32033;BME280;31720;52.638;9.216;2023-12-20T01:27:23;100858.84;;;5.77;100.00
32033;BME280;31720;52.638;9.216;2023-12-20T01:30:25;100851.94;;;5.74;100.00
32033;BME280;31720;52.638;9.216;2023-12-20T01:33:26;100854.78;;;5.67;100.00
32033;BME280;31720;52.638;9.216;2023-12-20T01:36:27;100863.50;;;5.66;100.00
32033;BME280;31720;52.638;9.216;2023-12-20T01:39:29;100866.06;;;5.67;100.00
32033;BME280;31720;52.638;9.216;2023-12-20T01:42:32;100868.94;;;5.58;100.00
32033;BME280;31720;52.638;9.216;2023-12-20T01:45:33;100859.28;;;5.62;100.00
32033;BME280;31720;52.638;9.216;2023-12-20T01:48:34;100860.13;;;5.62;100.00
32033;BME280;31720;52.638;9.216;2023-12-20T01:51:36;100870.53;;;5.64;100.00
32033;BME280;31720;52.638;9.216;2023-12-20T01:54:38;100862.56;;;5.68;100.00
32033;BME280;31720;52.638;9.216;2023-12-20T01:57:42;100853.50;;;5.80;100.00
32033;BME280;31720;52.638;9.216;2023-12-20T02:00:44;100850.88;;;5.80;100.00
32033;BME280;31720;52.638;9.216;2023-12-20T02:03:45;100855.41;;;5.75;100.00
32033;BME280;31720;52.638;9.216;2023-12-20T02:06:48;100853.69;;;5.74;100.00
32033;BME280;31720;52.638;9.216;2023-12-20T02:09:53;100847.03;;;5.65;100.00
32033;BME280;31720;52.638;9.216;2023-12-20T02:12:55;100841.75;;;5.67;100.00
32033;BME280;31720;52.638;9.216;2023-12-20T02:15:57;100842.88;;;5.58;100.00
32033;BME280;31720;52.638;9.216;2023-12-20T02:18:58;100833.31;;;5.58;100.00
32033;BME280;31720;52.638;9.216;2023-12-20T02:22:08;100822.19;;;5.53;100.00
32033;BME280;31720;52.638;9.216;2023-12-20T02:25:10;100833.56;;;5.51;100.00
32033;BME280;31720;52.638;9.216;2023-12-20T02:28:11;100834.50;;;5.48;100.00
32033;BME280;31720;52.638;9.216;2023-12-20T02:31:13;100831.91;;;5.48;100.00
32033;BME280;31720;52.638;9.216;2023-12-20T02:34:14;100839.84;;;5.44;100.00
32033;BME280;31720;52.638;9.216;2023-12-20T02:37:17;100844.13;;;5.46;100.00
32033;BME280;31720;52.638;9.216;2023-12-20T02:40:18;100832.88;;;5.46;100.00
32033;BME280;31720;52.638;9.216;2023-12-20T02:43:19;100834.03;;;5.35;100.00
32033;BME280;31720;52.638;9.216;2023-12-20T02:46:21;100826.03;;;5.42;100.00
32033;BME280;31720;52.638;9.216;2023-12-20T02:49:22;100815.63;;;5.42;100.00
32033;BME280;31720;52.638;9.216;2023-12-20T02:52:25;100822.88;;;5.32;100.00
32033;BME280;31720;52.638;9.216;2023-12-20T02:55:27;100834.28;;;5.28;100.00
32033;BME280;31720;52.638;9.216;2023-12-20T02:58:28;100824.78;;;5.25;100.00
32033;BME280;31720;52.638;9.216;2023-12-20T03:01:29;100812.84;;;5.18;100.00
32033;BME280;31720;52.638;9.216;2023-12-20T03:04:31;100813.72;;;5.19;100.00
32033;BME280;31720;52.638;9.216;2023-12-20T03:07:33;100818.06;;;5.18;100.00
32033;BME280;31720;52.638;9.216;2023-12-20T03:10:35;100822.16;;;5.27;100.00
32033;BME280;31720;52.638;9.216;2023-12-20T03:13:36;100811.03;;;5.20;100.00
32033;BME280;31720;52.638;9.216;2023-12-20T03:16:37;100794.44;;;5.24;100.00
32033;BME280;31720;52.638;9.216;2023-12-20T03:19:39;100794.63;;;5.18;100.00
32033;BME280;31720;52.638;9.216;2023-12-20T03:22:41;100792.03;;;5.18;100.00
32033;BME280;31720;52.638;9.216;2023-12-20T03:25:43;100795.56;;;5.16;100.00
32033;BME280;31720;52.638;9.216;2023-12-20T03:28:44;100791.91;;;5.21;100.00
32033;BME280;31720;52.638;9.216;2023-12-20T03:31:45;100780.69;;;5.19;100.00
32033;BME280;31720;52.638;9.216;2023-12-20T03:34:47;100770.19;;;5.22;100.00
32033;BME280;31720;52.638;9.216;2023-12-20T03:37:49;100772.50;;;5.31;100.00
32033;BME280;31720;52.638;9.216;2023-12-20T03:40:51;100781.69;;;5.15;100.00
32033;BME280;31720;52.638;9.216;2023-12-20T03:43:52;100776.25;;;5.23;100.00
32033;BME280;31720;52.638;9.216;2023-12-20T03:46:54;100765.63;;;5.29;100.00
32033;BME280;31720;52.638;9.216;2023-12-20T03:49:55;100772.72;;;5.24;100.00
32033;BME280;31720;52.638;9.216;2023-12-20T03:52:58;100776.13;;;5.26;100.00
32033;BME280;31720;52.638;9.216;2023-12-20T03:55:59;100786.31;;;5.33;100.00
32033;BME280;31720;52.638;9.216;2023-12-20T03:59:00;100782.16;;;5.28;100.00
32033;BME280;31720;52.638;9.216;2023-12-20T04:02:02;100775.81;;;5.37;100.00
32033;BME280;31720;52.638;9.216;2023-12-20T04:05:04;100767.19;;;5.34;100.00
32033;BME280;31720;52.638;9.216;2023-12-20T04:08:07;100767.00;;;5.41;100.00
32033;BME280;31720;52.638;9.216;2023-12-20T04:11:09;100759.13;;;5.42;100.00
32033;BME280;31720;52.638;9.216;2023-12-20T04:14:10;100759.13;;;5.42;100.00
32033;BME280;31720;52.638;9.216;2023-12-20T04:17:11;100748.75;;;5.41;100.00
32033;BME280;31720;52.638;9.216;2023-12-20T04:20:13;100751.41;;;5.39;100.00
32033;BME280;31720;52.638;9.216;2023-12-20T04:23:15;100737.16;;;5.49;100.00
32033;BME280;31720;52.638;9.216;2023-12-20T04:26:17;100738.88;;;5.50;100.00
32033;BME280;31720;52.638;9.216;2023-12-20T04:29:18;100742.97;;;5.57;100.00
32033;BME280;31720;52.638;9.216;2023-12-20T04:32:19;100744.19;;;5.47;100.00
32033;BME280;31720;52.638;9.216;2023-12-20T04:35:21;100735.16;;;5.57;100.00
32033;BME280;31720;52.638;9.216;2023-12-20T04:38:23;100748.19;;;5.57;100.00
32033;BME280;31720;52.638;9.216;2023-12-20T04:41:25;100753.06;;;5.68;100.00
32033;BME280;31720;52.638;9.216;2023-12-20T04:44:27;100749.00;;;5.59;100.00
32033;BME280;31720;52.638;9.216;2023-12-20T04:47:29;100737.84;;;5.56;100.00
32033;BME280;31720;52.638;9.216;2023-12-20T04:50:30;100738.59;;;5.59;100.00
32033;BME280;31720;52.638;9.216;2023-12-20T04:53:33;100733.25;;;5.63;100.00
32033;BME280;31720;52.638;9.216;2023-12-20T04:56:34;100730.78;;;5.59;100.00
32033;BME280;31720;52.638;9.216;2023-12-20T04:59:35;100733.25;;;5.63;100.00
32033;BME280;31720;52.638;9.216;2023-12-20T05:02:36;100726.34;;;5.62;100.00
32033;BME280;31720;52.638;9.216;2023-12-20T05:05:38;100730.78;;;5.59;100.00
32033;BME280;31720;52.638;9.216;2023-12-20T05:08:41;100724.13;;;5.49;100.00
32033;BME280;31720;52.638;9.216;2023-12-20T05:11:42;100727.47;;;5.54;100.00
32033;BME280;31720;52.638;9.216;2023-12-20T05:14:44;100729.84;;;5.60;100.00
32033;BME280;31720;52.638;9.216;2023-12-20T05:17:45;100732.41;;;5.62;100.00
32033;BME280;31720;52.638;9.216;2023-12-20T05:20:46;100723.03;;;5.56;100.00
32033;BME280;31720;52.638;9.216;2023-12-20T05:23:49;100717.72;;;5.59;100.00
32033;BME280;31720;52.638;9.216;2023-12-20T05:26:50;100733.91;;;5.69;100.00
32033;BME280;31720;52.638;9.216;2023-12-20T05:29:52;100728.69;;;5.69;100.00
32033;BME280;31720;52.638;9.216;2023-12-20T05:32:57;100734.00;;;5.66;100.00
32033;BME280;31720;52.638;9.216;2023-12-20T05:35:58;100720.88;;;5.69;100.00
32033;BME280;31720;52.638;9.216;2023-12-20T05:39:01;100737.38;;;5.70;100.00
32033;BME280;31720;52.638;9.216;2023-12-20T05:42:04;100736.53;;;5.69;100.00
32033;BME280;31720;52.638;9.216;2023-12-20T05:45:06;100747.66;;;5.74;100.00
32033;BME280;31720;52.638;9.216;2023-12-20T05:48:07;100735.53;;;5.73;100.00
32033;BME280;31720;52.638;9.216;2023-12-20T05:51:11;100735.72;;;5.67;100.00
32033;BME280;31720;52.638;9.216;2023-12-20T05:54:13;100719.13;;;5.70;100.00
32033;BME280;31720;52.638;9.216;2023-12-20T05:57:15;100724.09;;;5.77;100.00
32033;BME280;31720;52.638;9.216;2023-12-20T06:00:17;100725.69;;;5.81;100.00
32033;BME280;31720;52.638;9.216;2023-12-20T06:03:18;100723.09;;;5.81;100.00
32033;BME280;31720;52.638;9.216;2023-12-20T06:06:20;100722.25;;;5.79;100.00
32033;BME280;31720;52.638;9.216;2023-12-20T06:09:22;100736.91;;;5.83;100.00
32033;BME280;31720;52.638;9.216;2023-12-20T06:12:24;100722.16;;;5.82;100.00
32033;BME280;31720;52.638;9.216;2023-12-20T06:15:27;100729.88;;;5.85;100.00
32033;BME280;31720;52.638;9.216;2023-12-20T06:18:28;100732.19;;;5.95;100.00
32033;BME280;31720;52.638;9.216;2023-12-20T06:21:29;100727.78;;;5.97;100.00
32033;BME280;31720;52.638;9.216;2023-12-20T06:24:32;100716.09;;;5.82;100.00
32033;BME280;31720;52.638;9.216;2023-12-20T06:27:34;100709.69;;;5.92;100.00
32033;BME280;31720;52.638;9.216;2023-12-20T06:30:35;100711.59;;;5.87;100.00
32033;BME280;31720;52.638;9.216;2023-12-20T06:33:37;100711.59;;;5.87;100.00
32033;BME280;31720;52.638;9.216;2023-12-20T06:36:40;100710.72;;;5.87;100.00
32033;BME280;31720;52.638;9.216;2023-12-20T06:39:43;100700.41;;;5.83;100.00
32033;BME280;31720;52.638;9.216;2023-12-20T06:42:45;100695.34;;;5.79;100.00
32033;BME280;31720;52.638;9.216;2023-12-20T06:45:46;100693.50;;;5.82;100.00
32033;BME280;31720;52.638;9.216;2023-12-20T06:48:48;100701.19;;;5.85;100.00
32033;BME280;31720;52.638;9.216;2023-12-20T06:51:49;100697.88;;;5.80;100.00
32033;BME280;31720;52.638;9.216;2023-12-20T06:54:52;100677.00;;;5.82;100.00
32033;BME280;31720;52.638;9.216;2023-12-20T06:57:54;100685.53;;;5.85;100.00
32033;BME280;31720;52.638;9.216;2023-12-20T07:00:55;100669.72;;;5.90;100.00
32033;BME280;31720;52.638;9.216;2023-12-20T07:03:56;100680.09;;;5.93;100.00
32033;BME280;31720;52.638;9.216;2023-12-20T07:06:58;100677.63;;;5.89;100.00
32033;BME280;31720;52.638;9.216;2023-12-20T07:10:01;100674.81;;;5.95;100.00
32033;BME280;31720;52.638;9.216;2023-12-20T07:13:03;100684.66;;;5.87;100.00
32033;BME280;31720;52.638;9.216;2023-12-20T07:16:05;100666.41;;;5.87;100.00
32033;BME280;31720;52.638;9.216;2023-12-20T07:19:06;100664.75;;;5.84;100.00
32033;BME280;31720;52.638;9.216;2023-12-20T07:22:08;100661.91;;;5.92;100.00
32033;BME280;31720;52.638;9.216;2023-12-20T07:25:11;100658.63;;;5.85;100.00
32033;BME280;31720;52.638;9.216;2023-12-20T07:28:13;100671.50;;;5.90;100.00
32033;BME280;31720;52.638;9.216;2023-12-20T07:31:15;100654.75;;;5.97;100.00
32033;BME280;31720;52.638;9.216;2023-12-20T07:34:16;100665.44;;;5.89;100.00
32033;BME280;31720;52.638;9.216;2023-12-20T07:37:18;100644.56;;;5.89;100.00
32033;BME280;31720;52.638;9.216;2023-12-20T07:40:20;100653.84;;;5.98;100.00
32033;BME280;31720;52.638;9.216;2023-12-20T07:43:23;100656.56;;;5.95;100.00
32033;BME280;31720;52.638;9.216;2023-12-20T07:46:25;100657.59;;;5.89;100.00
32033;BME280;31720;52.638;9.216;2023-12-20T07:49:26;100660.03;;;5.95;100.00
32033;BME280;31720;52.638;9.216;2023-12-20T07:52:27;100659.91;;;5.98;100.00
32033;BME280;31720;52.638;9.216;2023-12-20T07:55:30;100659.00;;;5.99;100.00
32033;BME280;31720;52.638;9.216;2023-12-20T07:58:32;100655.78;;;5.93;100.00
32033;BME280;31720;52.638;9.216;2023-12-20T08:01:33;100650.50;;;5.94;100.00
32033;BME280;31720;52.638;9.216;2023-12-20T08:04:35;100637.41;;;5.96;100.00
32033;BME280;31720;52.638;9.216;2023-12-20T08:07:36;100654.84;;;5.95;100.00
32033;BME280;31720;52.638;9.216;2023-12-20T08:10:39;100639.22;;;5.94;100.00
32033;BME280;31720;52.638;9.216;2023-12-20T08:13:40;100641.72;;;5.97;100.00
32033;BME280;31720;52.638;9.216;2023-12-20T08:16:41;100637.34;;;5.97;100.00
32033;BME280;31720;52.638;9.216;2023-12-20T08:19:43;100642.50;;;5.99;100.00
32033;BME280;31720;52.638;9.216;2023-12-20T08:22:44;100630.38;;;5.98;100.00
32033;BME280;31720;52.638;9.216;2023-12-20T08:25:47;100637.13;;;6.03;100.00
32033;BME280;31720;52.638;9.216;2023-12-20T08:28:49;100631.19;;;6.00;100.00
32033;BME280;31720;52.638;9.216;2023-12-20T08:31:52;100629.97;;;6.08;100.00
32033;BME280;31720;52.638;9.216;2023-12-20T08:34:53;100636.00;;;6.10;100.00
32033;BME280;31720;52.638;9.216;2023-12-20T08:37:56;100612.63;;;6.07;100.00
32033;BME280;31720;52.638;9.216;2023-12-20T08:40:59;100618.69;;;6.08;100.00
32033;BME280;31720;52.638;9.216;2023-12-20T08:44:01;100615.97;;;6.11;100.00
32033;BME280;31720;52.638;9.216;2023-12-20T08:47:03;100608.44;;;6.03;100.00
32033;BME280;31720;52.638;9.216;2023-12-20T08:50:05;100604.69;;;6.10;100.00
32033;BME280;31720;52.638;9.216;2023-12-20T08:53:07;100603.72;;;6.13;100.00
32033;BME280;31720;52.638;9.216;2023-12-20T08:56:09;100597.88;;;6.06;100.00
32033;BME280;31720;52.638;9.216;2023-12-20T08:59:11;100599.41;;;6.12;100.00
32033;BME280;31720;52.638;9.216;2023-12-20T09:02:12;100602.88;;;6.13;100.00
32033;BME280;31720;52.638;9.216;2023-12-20T09:05:14;100589.44;;;6.23;100.00
32033;BME280;31720;52.638;9.216;2023-12-20T09:08:15;100590.34;;;6.22;100.00
32033;BME280;31720;52.638;9.216;2023-12-20T09:11:18;100582.88;;;6.35;100.00
32033;BME280;31720;52.638;9.216;2023-12-20T09:14:19;100590.22;;;6.25;100.00
32033;BME280;31720;52.638;9.216;2023-12-20T09:17:21;100575.13;;;6.33;100.00
32033;BME280;31720;52.638;9.216;2023-12-20T09:20:23;100584.97;;;6.27;100.00
32033;BME280;31720;52.638;9.216;2023-12-20T09:23:24;100584.97;;;6.27;100.00
32033;BME280;31720;52.638;9.216;2023-12-20T09:26:27;100574.13;;;6.14;100.00
32033;BME280;31720;52.638;9.216;2023-12-20T09:29:28;100565.22;;;6.20;100.00
32033;BME280;31720;52.638;9.216;2023-12-20T09:32:30;100576.44;;;6.22;100.00
32033;BME280;31720;52.638;9.216;2023-12-20T09:35:32;100585.81;;;6.27;100.00
32033;BME280;31720;52.638;9.216;2023-12-20T09:38:33;100586.22;;;6.39;100.00
32033;BME280;31720;52.638;9.216;2023-12-20T09:41:37;100560.13;;;6.39;100.00
32033;BME280;31720;52.638;9.216;2023-12-20T09:44:41;100558.53;;;6.34;100.00
32033;BME280;31720;52.638;9.216;2023-12-20T09:47:44;100576.81;;;6.34;100.00
32033;BME280;31720;52.638;9.216;2023-12-20T09:50:46;100562.16;;;6.32;100.00
32033;BME280;31720;52.638;9.216;2023-12-20T09:53:48;100555.91;;;6.36;100.00
32033;BME280;31720;52.638;9.216;2023-12-20T09:56:51;100561.06;;;6.38;100.00
32033;BME280;31720;52.638;9.216;2023-12-20T09:59:52;100562.00;;;6.35;100.00
32033;BME280;31720;52.638;9.216;2023-12-20T10:02:57;100565.97;;;6.45;100.00
32033;BME280;31720;52.638;9.216;2023-12-20T10:05:58;100562.44;;;6.46;100.00
32033;BME280;31720;52.638;9.216;2023-12-20T10:09:01;100561.91;;;6.38;100.00
32033;BME280;31720;52.638;9.216;2023-12-20T10:12:05;100561.59;;;6.46;100.00
32033;BME280;31720;52.638;9.216;2023-12-20T10:15:08;100561.78;;;6.41;100.00
32033;BME280;31720;52.638;9.216;2023-12-20T10:18:12;100553.78;;;6.46;100.00
32033;BME280;31720;52.638;9.216;2023-12-20T10:21:13;100554.56;;;6.48;100.00
32033;BME280;31720;52.638;9.216;2023-12-20T10:24:17;100534.50;;;6.48;100.00
32033;BME280;31720;52.638;9.216;2023-12-20T10:27:20;100544.97;;;6.48;100.00
32033;BME280;31720;52.638;9.216;2023-12-20T10:30:21;100527.78;;;6.43;100.00
32033;BME280;31720;52.638;9.216;2023-12-20T10:33:24;100535.53;;;6.44;100.00
32033;BME280;31720;52.638;9.216;2023-12-20T10:36:27;100531.88;;;6.50;100.00
32033;BME280;31720;52.638;9.216;2023-12-20T10:39:29;100524.22;;;6.45;100.00
32033;BME280;31720;52.638;9.216;2023-12-20T10:42:33;100511.50;;;6.58;100.00
32033;BME280;31720;52.638;9.216;2023-12-20T10:45:36;100518.38;;;6.60;100.00
32033;BME280;31720;52.638;9.216;2023-12-20T10:48:39;100517.34;;;6.65;100.00
32033;BME280;31720;52.638;9.216;2023-12-20T10:51:40;100512.16;;;6.63;100.00
32033;BME280;31720;52.638;9.216;2023-12-20T10:54:42;100528.88;;;6.59;100.00
32033;BME280;31720;52.638;9.216;2023-12-20T10:57:46;100522.84;;;6.57;100.00
32033;BME280;31720;52.638;9.216;2023-12-20T11:00:57;100523.97;;;6.29;100.00
32033;BME280;31720;52.638;9.216;2023-12-20T11:04:00;100557.50;;;6.17;100.00
32033;BME280;31720;52.638;9.216;2023-12-20T11:07:08;100565.63;;;6.09;100.00
32033;BME280;31720;52.638;9.216;2023-12-20T11:10:19;100552.63;;;6.07;100.00
32033;BME280;31720;52.638;9.216;2023-12-20T11:13:28;100564.72;;;6.10;100.00
32033;BME280;31720;52.638;9.216;2023-12-20T11:16:32;100570.50;;;6.18;100.00
32033;BME280;31720;52.638;9.216;2023-12-20T11:19:36;100580.41;;;6.32;100.00
32033;BME280;31720;52.638;9.216;2023-12-20T11:22:38;100570.84;;;6.31;100.00
32033;BME280;31720;52.638;9.216;2023-12-20T11:25:51;100561.31;;;6.31;100.00
32033;BME280;31720;52.638;9.216;2023-12-20T11:29:01;100562.91;;;6.34;100.00
32033;BME280;31720;52.638;9.216;2023-12-20T11:32:28;100563.03;;;6.31;100.00
32033;BME280;31720;52.638;9.216;2023-12-20T11:35:30;100565.59;;;6.32;100.00
32033;BME280;31720;52.638;9.216;2023-12-20T11:38:36;100571.25;;;6.44;100.00
32033;BME280;31720;52.638;9.216;2023-12-20T11:41:37;100563.22;;;6.48;100.00
32033;BME280;31720;52.638;9.216;2023-12-20T11:44:42;100561.28;;;6.53;100.00
32033;BME280;31720;52.638;9.216;2023-12-20T11:47:46;100567.91;;;6.62;100.00
32033;BME280;31720;52.638;9.216;2023-12-20T11:50:49;100571.56;;;6.36;100.00
32033;BME280;31720;52.638;9.216;2023-12-20T11:53:51;100561.47;;;6.27;100.00
32033;BME280;31720;52.638;9.216;2023-12-20T11:56:53;100565.78;;;6.28;100.00
32033;BME280;31720;52.638;9.216;2023-12-20T11:59:56;100564.38;;;6.19;100.00
32033;BME280;31720;52.638;9.216;2023-12-20T12:02:58;100593.41;;;6.10;100.00
32033;BME280;31720;52.638;9.216;2023-12-20T12:06:00;100560.34;;;6.10;100.00
32033;BME280;31720;52.638;9.216;2023-12-20T12:09:02;100559.22;;;6.18;100.00
32033;BME280;31720;52.638;9.216;2023-12-20T12:12:05;100553.25;;;6.14;100.00
32033;BME280;31720;52.638;9.216;2023-12-20T12:15:09;100559.22;;;6.18;100.00
32033;BME280;31720;52.638;9.216;2023-12-20T12:18:10;100558.41;;;6.16;100.00
32033;BME280;31720;52.638;9.216;2023-12-20T12:21:18;100564.88;;;6.05;100.00
32033;BME280;31720;52.638;9.216;2023-12-20T12:24:20;100568.69;;;5.97;100.00
32033;BME280;31720;52.638;9.216;2023-12-20T12:27:22;100582.09;;;5.86;100.00
32033;BME280;31720;52.638;9.216;2023-12-20T12:30:26;100588.50;;;5.77;100.00
32033;BME280;31720;52.638;9.216;2023-12-20T12:33:27;100567.50;;;5.80;100.00
32033;BME280;31720;52.638;9.216;2023-12-20T12:36:29;100564.56;;;5.90;100.00
32033;BME280;31720;52.638;9.216;2023-12-20T12:39:31;100562.19;;;5.83;100.00
32033;BME280;31720;52.638;9.216;2023-12-20T12:42:32;100560.75;;;5.75;100.00
32033;BME280;31720;52.638;9.216;2023-12-20T12:45:35;100565.19;;;5.73;100.00
32033;BME280;31720;52.638;9.216;2023-12-20T12:48:36;100556.22;;;5.80;100.00
32033;BME280;31720;52.638;9.216;2023-12-20T12:51:38;100548.13;;;5.88;100.00
32033;BME280;31720;52.638;9.216;2023-12-20T12:54:39;100555.16;;;5.85;100.00
32033;BME280;31720;52.638;9.216;2023-12-20T12:57:41;100552.38;;;5.90;100.00
32033;BME280;31720;52.638;9.216;2023-12-20T13:00:45;100550.16;;;5.79;100.00
32033;BME280;31720;52.638;9.216;2023-12-20T13:03:46;100555.84;;;5.91;100.00
32033;BME280;31720;52.638;9.216;2023-12-20T13:06:48;100557.91;;;5.82;100.00
32033;BME280;31720;52.638;9.216;2023-12-20T13:09:50;100557.06;;;5.80;100.00
32033;BME280;31720;52.638;9.216;2023-12-20T13:12:52;100551.88;;;5.80;100.00
32033;BME280;31720;52.638;9.216;2023-12-20T13:15:55;100558.31;;;5.70;100.00
32033;BME280;31720;52.638;9.216;2023-12-20T13:18:56;100554.06;;;5.68;100.00
32033;BME280;31720;52.638;9.216;2023-12-20T13:22:00;100547.28;;;5.64;100.00
32033;BME280;31720;52.638;9.216;2023-12-20T13:25:02;100543.94;;;5.60;100.00
32033;BME280;31720;52.638;9.216;2023-12-20T13:28:04;100548.31;;;5.59;100.00
32033;BME280;31720;52.638;9.216;2023-12-20T13:31:07;100548.72;;;5.72;100.00
32033;BME280;31720;52.638;9.216;2023-12-20T13:34:08;100549.22;;;5.82;100.00
32033;BME280;31720;52.638;9.216;2023-12-20T13:37:10;100534.41;;;5.82;100.00
32033;BME280;31720;52.638;9.216;2023-12-20T13:40:11;100529.47;;;5.75;100.00
32033;BME280;31720;52.638;9.216;2023-12-20T13:43:13;100526.03;;;5.74;100.00
32033;BME280;31720;52.638;9.216;2023-12-20T13:46:18;100525.06;;;5.77;100.00
32033;BME280;31720;52.638;9.216;2023-12-20T13:49:19;100518.28;;;5.73;100.00
32033;BME280;31720;52.638;9.216;2023-12-20T13:52:21;100521.31;;;5.84;100.00
32033;BME280;31720;52.638;9.216;2023-12-20T13:55:22;100513.72;;;5.78;100.00
32033;BME280;31720;52.638;9.216;2023-12-20T13:58:25;100520.53;;;5.82;100.00
32033;BME280;31720;52.638;9.216;2023-12-20T14:01:28;100517.44;;;5.96;100.00
32033;BME280;31720;52.638;9.216;2023-12-20T14:04:29;100531.31;;;5.96;100.00
32033;BME280;31720;52.638;9.216;2023-12-20T14:07:31;100548.91;;;5.90;100.00
32033;BME280;31720;52.638;9.216;2023-12-20T14:10:32;100539.34;;;5.90;100.00
32033;BME280;31720;52.638;9.216;2023-12-20T14:13:34;100547.16;;;5.92;100.00
32033;BME280;31720;52.638;9.216;2023-12-20T14:16:37;100547.72;;;6.00;100.00
32033;BME280;31720;52.638;9.216;2023-12-20T14:19:38;100539.16;;;5.96;100.00
32033;BME280;31720;52.638;9.216;2023-12-20T14:22:40;100538.56;;;5.88;100.00
32033;BME280;31720;52.638;9.216;2023-12-20T14:25:44;100530.97;;;6.05;100.00
32033;BME280;31720;52.638;9.216;2023-12-20T14:28:45;100539.59;;;6.07;100.00
32033;BME280;31720;52.638;9.216;2023-12-20T14:31:48;100538.97;;;6.01;100.00
32033;BME280;31720;52.638;9.216;2023-12-20T14:34:49;100529.50;;;5.98;100.00
32033;BME280;31720;52.638;9.216;2023-12-20T14:37:51;100538.16;;;5.99;100.00
32033;BME280;31720;52.638;9.216;2023-12-20T14:40:54;100530.47;;;5.96;100.00
32033;BME280;31720;52.638;9.216;2023-12-20T14:43:55;100526.88;;;5.98;100.00
32033;BME280;31720;52.638;9.216;2023-12-20T14:46:58;100528.47;;;6.02;100.00
32033;BME280;31720;52.638;9.216;2023-12-20T14:50:02;100521.50;;;6.03;100.00
32033;BME280;31720;52.638;9.216;2023-12-20T14:53:04;100535.53;;;6.00;100.00
32033;BME280;31720;52.638;9.216;2023-12-20T14:56:06;100533.94;;;5.96;100.00
32033;BME280;31720;52.638;9.216;2023-12-20T14:59:07;100527.88;;;5.96;100.00
32033;BME280;31720;52.638;9.216;2023-12-20T15:02:10;100536.03;;;6.10;100.00
32033;BME280;31720;52.638;9.216;2023-12-20T15:05:12;100536.88;;;6.10;100.00
32033;BME280;31720;52.638;9.216;2023-12-20T15:08:14;100532.69;;;6.06;100.00
32033;BME280;31720;52.638;9.216;2023-12-20T15:11:15;100543.88;;;6.08;100.00
32033;BME280;31720;52.638;9.216;2023-12-20T15:14:17;100554.38;;;6.07;100.00
32033;BME280;31720;52.638;9.216;2023-12-20T15:17:21;100553.78;;;6.00;100.00
32033;BME280;31720;52.638;9.216;2023-12-20T15:20:22;100556.66;;;5.93;100.00
32033;BME280;31720;52.638;9.216;2023-12-20T15:23:23;100550.25;;;6.01;100.00
32033;BME280;31720;52.638;9.216;2023-12-20T15:26:26;100557.41;;;5.96;100.00
32033;BME280;31720;52.638;9.216;2023-12-20T15:29:29;100549.44;;;5.99;100.00
32033;BME280;31720;52.638;9.216;2023-12-20T15:32:32;100546.00;;;5.99;100.00
32033;BME280;31720;52.638;9.216;2023-12-20T15:35:34;100564.31;;;5.97;100.00
32033;BME280;31720;52.638;9.216;2023-12-20T15:38:35;100559.28;;;5.93;100.00
32033;BME280;31720;52.638;9.216;2023-12-20T15:41:36;100575.16;;;5.85;100.00
32033;BME280;31720;52.638;9.216;2023-12-20T15:44:38;100564.91;;;5.80;100.00
32033;BME280;31720;52.638;9.216;2023-12-20T15:47:40;100577.75;;;5.62;100.00
32033;BME280;31720;52.638;9.216;2023-12-20T15:50:42;100577.81;;;5.60;100.00
32033;BME280;31720;52.638;9.216;2023-12-20T15:53:43;100568.50;;;5.53;100.00